createdAt,value
2022-11-27T00:01:13.069Z,1.84
2022-11-27T00:03:42.182Z,1.84
2022-11-27T00:06:17.856Z,1.83
2022-11-27T00:08:45.997Z,1.83
2022-11-27T00:11:24.043Z,1.83
2022-11-27T00:13:51.410Z,1.81
2022-11-27T00:16:19.824Z,1.81
2022-11-27T00:18:47.508Z,1.80
2022-11-27T00:21:23.780Z,1.79
2022-11-27T00:23:52.594Z,1.77
2022-11-27T00:26:19.884Z,1.77
2022-11-27T00:28:47.120Z,1.76
2022-11-27T00:31:20.273Z,1.76
2022-11-27T00:33:47.750Z,1.75
2022-11-27T00:36:15.679Z,1.74
2022-11-27T00:38:42.499Z,1.74
2022-11-27T00:41:20.068Z,1.73
2022-11-27T00:43:47.937Z,1.73
2022-11-27T00:46:22.809Z,1.72
2022-11-27T00:48:54.316Z,1.71
2022-11-27T00:51:22.885Z,1.70
2022-11-27T00:53:50.602Z,1.69
2022-11-27T00:56:30.183Z,1.69
2022-11-27T00:58:57.450Z,1.69
2022-11-27T01:01:27.995Z,1.68
2022-11-27T01:03:56.614Z,1.68
2022-11-27T01:06:24.008Z,1.68
2022-11-27T01:08:50.943Z,1.67
2022-11-27T01:11:25.190Z,1.66
2022-11-27T01:13:52.074Z,1.64
2022-11-27T01:16:22.017Z,1.63
2022-11-27T01:18:50.670Z,1.63
2022-11-27T01:21:20.247Z,1.64
2022-11-27T01:23:48.558Z,1.65
2022-11-27T01:26:17.282Z,1.66
2022-11-27T01:28:44.508Z,1.66
2022-11-27T01:31:14.907Z,1.67
2022-11-27T01:33:42.417Z,1.67
2022-11-27T01:36:10.861Z,1.68
2022-11-27T01:38:37.804Z,1.68
2022-11-27T01:41:27.186Z,1.67
2022-11-27T01:44:03.047Z,1.66
2022-11-27T01:46:51.193Z,1.65
2022-11-27T01:49:33.528Z,1.65
2022-11-27T01:52:04.691Z,1.63
2022-11-27T01:54:39.242Z,1.64
2022-11-27T01:57:15.016Z,1.64
2022-11-27T01:59:42.331Z,1.64
2022-11-27T02:02:09.152Z,1.64
2022-11-27T02:04:36.128Z,1.64
2022-11-27T02:07:03.034Z,1.64
2022-11-27T02:09:30.668Z,1.64
2022-11-27T02:12:00.430Z,1.63
2022-11-27T02:15:04.443Z,1.62
2022-11-27T02:17:51.431Z,1.62
2022-11-27T02:20:37.061Z,1.63
2022-11-27T02:23:06.448Z,1.63
2022-11-27T02:26:01.635Z,1.64
2022-11-27T02:29:05.634Z,1.63
2022-11-27T02:31:50.275Z,1.63
2022-11-27T02:34:42.109Z,1.63
2022-11-27T02:37:20.725Z,1.62
2022-11-27T02:40:01.240Z,1.63
2022-11-27T02:42:32.749Z,1.62
2022-11-27T02:45:12.015Z,1.62
2022-11-27T02:47:43.252Z,1.63
2022-11-27T02:50:16.355Z,1.63
2022-11-27T02:52:44.893Z,1.62
2022-11-27T02:55:16.695Z,1.62
2022-11-27T02:57:45.301Z,1.62
2022-11-27T03:00:13.276Z,1.61
2022-11-27T03:02:46.634Z,1.62
2022-11-27T03:05:19.539Z,1.61
2022-11-27T03:08:01.015Z,1.59
2022-11-27T03:10:57.128Z,1.60
2022-11-27T03:13:25.399Z,1.60
2022-11-27T03:15:58.245Z,1.60
2022-11-27T03:18:42.522Z,1.60
2022-11-27T03:21:18.545Z,1.59
2022-11-27T03:23:45.301Z,1.59
2022-11-27T03:26:12.096Z,1.59
2022-11-27T03:28:40.749Z,1.60
2022-11-27T03:31:07.639Z,1.61
2022-11-27T03:33:34.497Z,1.60
2022-11-27T03:36:01.243Z,1.58
2022-11-27T03:38:28.110Z,1.58
2022-11-27T03:41:05.531Z,1.57
2022-11-27T03:43:40.142Z,1.58
2022-11-27T03:46:16.140Z,1.59
2022-11-27T03:48:58.745Z,1.59
2022-11-27T03:51:40.516Z,1.58
2022-11-27T03:54:50.032Z,1.58
2022-11-27T03:57:19.849Z,1.58
2022-11-27T03:59:50.986Z,1.58
2022-11-27T04:02:28.638Z,1.58
2022-11-27T04:04:55.500Z,1.57
2022-11-27T04:07:22.374Z,1.57
2022-11-27T04:09:49.161Z,1.57
2022-11-27T04:12:15.956Z,1.57
2022-11-27T04:14:42.732Z,1.56
2022-11-27T04:17:09.587Z,1.57
2022-11-27T04:19:36.390Z,1.57
2022-11-27T04:22:03.156Z,1.57
2022-11-27T04:24:29.910Z,1.57
2022-11-27T04:26:56.685Z,1.56
2022-11-27T04:29:23.484Z,1.56
2022-11-27T04:31:50.350Z,1.58
2022-11-27T04:34:17.293Z,1.58
2022-11-27T04:36:45.747Z,1.59
2022-11-27T04:39:13.001Z,1.59
2022-11-27T04:41:39.973Z,1.58
2022-11-27T04:44:06.766Z,1.58
2022-11-27T04:46:33.636Z,1.57
2022-11-27T04:49:00.427Z,1.56
2022-11-27T04:51:27.191Z,1.55
2022-11-27T04:53:54.078Z,1.55
2022-11-27T04:56:21.320Z,1.57
2022-11-27T04:58:48.066Z,1.58
2022-11-27T05:01:15.441Z,1.60
2022-11-27T05:03:42.387Z,1.60
2022-11-27T05:06:09.630Z,1.61
2022-11-27T05:08:36.334Z,1.61
2022-11-27T05:11:05.990Z,1.61
2022-11-27T05:13:33.669Z,1.62
2022-11-27T05:16:00.603Z,1.62
2022-11-27T05:18:27.484Z,1.62
2022-11-27T05:20:59.289Z,1.63
2022-11-27T05:23:26.941Z,1.63
2022-11-27T05:25:54.436Z,1.63
2022-11-27T05:28:26.397Z,1.63
2022-11-27T05:30:54.346Z,1.64
2022-11-27T05:33:21.351Z,1.64
2022-11-27T05:35:48.112Z,1.64
2022-11-27T05:38:14.921Z,1.63
2022-11-27T05:40:41.885Z,1.63
2022-11-27T05:43:08.710Z,1.65
2022-11-27T05:45:37.172Z,1.67
2022-11-27T05:48:04.177Z,1.68
2022-11-27T05:50:31.086Z,1.68
2022-11-27T05:52:59.088Z,1.69
2022-11-27T05:55:26.350Z,1.71
2022-11-27T05:57:53.207Z,1.73
2022-11-27T06:00:20.240Z,1.72
2022-11-27T06:02:47.153Z,1.70
2022-11-27T06:05:14.173Z,1.71
2022-11-27T06:07:40.999Z,1.70
2022-11-27T06:10:08.113Z,1.70
2022-11-27T06:12:35.045Z,1.72
2022-11-27T06:15:02.643Z,1.74
2022-11-27T06:17:29.543Z,1.74
2022-11-27T06:19:56.379Z,1.76
2022-11-27T06:22:23.305Z,1.77
2022-11-27T06:24:50.361Z,1.79
2022-11-27T06:27:17.102Z,1.81
2022-11-27T06:29:44.022Z,1.81
2022-11-27T06:32:10.974Z,1.83
2022-11-27T06:34:38.017Z,1.85
2022-11-27T06:37:08.070Z,1.87
2022-11-27T06:39:38.627Z,1.88
2022-11-27T06:42:05.546Z,1.91
2022-11-27T06:44:32.314Z,1.93
2022-11-27T06:46:59.162Z,1.96
2022-11-27T06:49:25.924Z,1.97
2022-11-27T06:51:52.751Z,2.01
2022-11-27T06:54:19.574Z,2.04
2022-11-27T06:56:49.458Z,2.05
2022-11-27T06:59:16.643Z,2.13
2022-11-27T07:01:43.535Z,2.19
2022-11-27T07:04:12.352Z,2.25
2022-11-27T07:06:40.377Z,2.31
2022-11-27T07:09:07.591Z,2.37
2022-11-27T07:11:34.549Z,2.40
2022-11-27T07:14:03.601Z,2.42
2022-11-27T07:16:32.708Z,2.46
2022-11-27T07:19:06.132Z,2.49
2022-11-27T07:21:35.253Z,2.52
2022-11-27T07:24:02.141Z,2.57
2022-11-27T07:26:30.291Z,2.58
2022-11-27T07:28:57.724Z,2.62
2022-11-27T07:31:27.745Z,2.65
2022-11-27T07:33:55.653Z,2.66
2022-11-27T07:36:25.310Z,2.68
2022-11-27T07:38:52.298Z,2.73
2022-11-27T07:41:19.529Z,2.77
2022-11-27T07:43:46.815Z,2.82
2022-11-27T07:46:16.797Z,2.86
2022-11-27T07:48:43.917Z,2.90
2022-11-27T07:51:13.565Z,2.94
2022-11-27T07:53:41.058Z,3.00
2022-11-27T07:56:11.542Z,3.06
2022-11-27T07:58:38.429Z,3.10
2022-11-27T08:01:09.976Z,3.15
2022-11-27T08:03:37.539Z,3.23
2022-11-27T08:06:05.306Z,3.31
2022-11-27T08:08:32.568Z,3.36
2022-11-27T08:10:59.654Z,3.38
2022-11-27T08:13:26.456Z,3.40
2022-11-27T08:15:53.750Z,3.41
2022-11-27T08:18:20.653Z,3.40
2022-11-27T08:20:47.490Z,3.40
2022-11-27T08:23:14.258Z,3.39
2022-11-27T08:25:41.061Z,3.38
2022-11-27T08:28:07.855Z,3.37
2022-11-27T08:30:34.628Z,3.36
2022-11-27T08:33:01.481Z,3.35
2022-11-27T08:35:28.218Z,3.33
2022-11-27T08:37:55.147Z,3.32
2022-11-27T08:40:22.097Z,3.31
2022-11-27T08:42:48.925Z,3.32
2022-11-27T08:45:15.796Z,3.34
2022-11-27T08:47:43.023Z,3.35
2022-11-27T08:50:10.498Z,3.38
2022-11-27T08:52:37.364Z,3.42
2022-11-27T08:55:04.847Z,3.44
2022-11-27T08:57:31.649Z,3.44
2022-11-27T08:59:58.455Z,3.42
2022-11-27T09:02:25.266Z,3.43
2022-11-27T09:04:52.247Z,3.43
2022-11-27T09:07:19.086Z,3.42
2022-11-27T09:09:45.999Z,3.41
2022-11-27T09:12:13.257Z,3.41
2022-11-27T09:14:40.268Z,3.42
2022-11-27T09:17:07.390Z,3.42
2022-11-27T09:19:34.554Z,3.42
2022-11-27T09:22:01.419Z,3.40
2022-11-27T09:24:28.245Z,3.37
2022-11-27T09:26:55.119Z,3.33
2022-11-27T09:29:22.184Z,3.30
2022-11-27T09:31:50.438Z,3.27
2022-11-27T09:34:17.735Z,3.27
2022-11-27T09:36:44.676Z,3.26
2022-11-27T09:39:13.242Z,3.26
2022-11-27T09:41:53.063Z,3.27
2022-11-27T09:44:59.415Z,3.27
2022-11-27T09:47:43.061Z,3.25
2022-11-27T09:50:25.086Z,3.21
2022-11-27T09:53:00.819Z,3.10
2022-11-27T09:55:41.067Z,3.07
2022-11-27T09:58:19.677Z,3.01
2022-11-27T10:00:47.403Z,3.05
2022-11-27T10:03:18.137Z,3.05
2022-11-27T10:05:44.948Z,3.03
2022-11-27T10:09:00.136Z,3.04
2022-11-27T10:11:27.049Z,3.07
2022-11-27T10:14:27.903Z,3.08
2022-11-27T10:16:58.910Z,3.11
2022-11-27T10:19:37.787Z,3.11
2022-11-27T10:22:10.051Z,3.11
2022-11-27T10:24:45.611Z,3.14
2022-11-27T10:27:44.865Z,3.16
2022-11-27T10:30:17.661Z,3.18
2022-11-27T10:32:55.040Z,3.20
2022-11-27T10:35:32.224Z,3.23
2022-11-27T10:38:16.822Z,3.23
2022-11-27T10:40:58.584Z,3.22
2022-11-27T10:43:25.547Z,3.22
2022-11-27T10:46:15.115Z,3.24
2022-11-27T10:48:42.042Z,3.27
2022-11-27T10:51:28.769Z,3.32
2022-11-27T10:53:59.851Z,3.39
2022-11-27T10:56:47.212Z,3.48
2022-11-27T10:59:33.159Z,3.61
2022-11-27T11:02:05.160Z,3.75
2022-11-27T11:04:39.730Z,3.92
2022-11-27T11:07:23.254Z,4.18
2022-11-27T11:09:50.301Z,4.36
2022-11-27T11:12:20.694Z,4.49
2022-11-27T11:14:56.437Z,4.60
2022-11-27T11:17:28.830Z,4.61
2022-11-27T11:19:55.838Z,4.65
2022-11-27T11:22:24.010Z,4.77
2022-11-27T11:24:52.953Z,4.90
2022-11-27T11:27:25.887Z,4.91
2022-11-27T11:29:56.012Z,4.94
2022-11-27T11:32:27.055Z,4.94
2022-11-27T11:35:07.936Z,4.92
2022-11-27T11:37:39.489Z,4.85
2022-11-27T11:40:16.096Z,4.79
2022-11-27T11:43:00.149Z,4.74
2022-11-27T11:45:32.669Z,4.66
2022-11-27T11:48:03.588Z,4.61
2022-11-27T11:50:47.456Z,4.58
2022-11-27T11:53:31.427Z,4.58
2022-11-27T11:56:25.544Z,4.57
2022-11-27T11:59:27.010Z,4.56
2022-11-27T12:01:59.908Z,4.54
2022-11-27T12:04:48.786Z,4.47
2022-11-27T12:07:52.839Z,4.40
2022-11-27T12:10:27.516Z,4.34
2022-11-27T12:13:03.834Z,4.29
2022-11-27T12:16:10.577Z,4.25
2022-11-27T12:19:15.018Z,4.19
2022-11-27T12:21:53.955Z,4.16
2022-11-27T12:24:51.331Z,4.15
2022-11-27T12:27:47.427Z,4.16
2022-11-27T12:30:19.230Z,4.19
2022-11-27T12:32:58.509Z,4.25
2022-11-27T12:35:44.260Z,4.29
2022-11-27T12:38:20.153Z,4.33
2022-11-27T12:41:19.039Z,4.36
2022-11-27T12:43:55.674Z,4.43
2022-11-27T12:46:39.550Z,4.50
2022-11-27T12:49:21.489Z,4.55
2022-11-27T12:52:11.307Z,4.60
2022-11-27T12:54:46.062Z,4.60
2022-11-27T12:57:36.121Z,4.55
2022-11-27T13:00:14.589Z,4.51
2022-11-27T13:03:02.950Z,4.48
2022-11-27T13:05:37.932Z,4.42
2022-11-27T13:08:21.123Z,4.38
2022-11-27T13:10:59.992Z,4.34
2022-11-27T13:13:53.471Z,4.32
2022-11-27T13:16:24.821Z,4.31
2022-11-27T13:18:57.938Z,4.29
2022-11-27T13:21:29.710Z,4.27
2022-11-27T13:24:00.595Z,4.25
2022-11-27T13:26:34.596Z,4.21
2022-11-27T13:29:08.380Z,4.19
2022-11-27T13:31:38.833Z,4.18
2022-11-27T13:34:09.676Z,4.17
2022-11-27T13:36:44.260Z,4.16
2022-11-27T13:39:27.677Z,4.13
2022-11-27T13:42:21.056Z,4.10
2022-11-27T13:45:04.187Z,4.07
2022-11-27T13:47:40.601Z,4.05
2022-11-27T13:50:11.158Z,4.03
2022-11-27T13:53:02.687Z,4.01
2022-11-27T13:55:38.693Z,3.98
2022-11-27T13:58:07.586Z,3.97
2022-11-27T14:00:43.954Z,3.96
2022-11-27T14:03:26.336Z,3.96
2022-11-27T14:05:53.984Z,3.94
2022-11-27T14:08:31.487Z,3.92
2022-11-27T14:11:00.135Z,3.90
2022-11-27T14:13:38.206Z,3.89
2022-11-27T14:16:22.233Z,3.87
2022-11-27T14:18:51.663Z,3.86
2022-11-27T14:21:43.532Z,3.87
2022-11-27T14:24:26.791Z,3.87
2022-11-27T14:26:54.217Z,3.87
2022-11-27T14:29:22.444Z,3.86
2022-11-27T14:32:00.548Z,3.86
2022-11-27T14:34:34.029Z,3.84
2022-11-27T14:37:01.102Z,3.81
2022-11-27T14:39:30.585Z,3.78
2022-11-27T14:42:01.257Z,3.76
2022-11-27T14:44:29.041Z,3.73
2022-11-27T14:46:59.926Z,3.72
2022-11-27T14:49:29.651Z,3.70
2022-11-27T14:52:01.593Z,3.68
2022-11-27T14:54:32.239Z,3.66
2022-11-27T14:56:59.241Z,3.63
2022-11-27T14:59:26.448Z,3.60
2022-11-27T15:02:17.058Z,3.56
2022-11-27T15:04:46.100Z,3.50
2022-11-27T15:07:19.686Z,3.45
2022-11-27T15:09:49.881Z,3.39
2022-11-27T15:12:30.237Z,3.30
2022-11-27T15:15:09.820Z,3.21
2022-11-27T15:17:39.637Z,3.12
2022-11-27T15:20:17.154Z,3.04
2022-11-27T15:22:52.759Z,2.96
2022-11-27T15:25:36.155Z,2.88
2022-11-27T15:28:19.086Z,2.77
2022-11-27T15:30:46.207Z,2.68
2022-11-27T15:33:26.277Z,2.60
2022-11-27T15:35:55.006Z,2.53
2022-11-27T15:38:22.162Z,2.48
2022-11-27T15:41:00.325Z,2.43
2022-11-27T15:43:27.148Z,2.38
2022-11-27T15:45:54.335Z,2.37
2022-11-27T15:48:22.058Z,2.34
2022-11-27T15:50:51.828Z,2.33
2022-11-27T15:53:18.968Z,2.32
2022-11-27T15:55:45.774Z,2.31
2022-11-27T15:58:12.605Z,2.32
2022-11-27T16:00:40.123Z,2.33
2022-11-27T16:03:06.956Z,2.35
2022-11-27T16:05:33.713Z,2.37
2022-11-27T16:08:00.932Z,2.39
2022-11-27T16:10:27.814Z,2.40
2022-11-27T16:12:54.840Z,2.41
2022-11-27T16:15:23.507Z,2.40
2022-11-27T16:17:53.237Z,2.39
2022-11-27T16:20:20.288Z,2.39
2022-11-27T16:22:47.052Z,2.39
2022-11-27T16:25:16.768Z,2.40
2022-11-27T16:27:43.673Z,2.40
2022-11-27T16:30:11.277Z,2.40
2022-11-27T16:32:39.331Z,2.41
2022-11-27T16:35:07.067Z,2.42
2022-11-27T16:37:34.320Z,2.42
2022-11-27T16:40:01.059Z,2.43
2022-11-27T16:42:28.221Z,2.42
2022-11-27T16:44:55.155Z,2.43
2022-11-27T16:47:22.189Z,2.43
2022-11-27T16:49:49.319Z,2.43
2022-11-27T16:52:16.588Z,2.43
2022-11-27T16:54:43.709Z,2.44
2022-11-27T16:57:11.158Z,2.43
2022-11-27T16:59:38.005Z,2.42
2022-11-27T17:02:05.313Z,2.41
2022-11-27T17:04:33.392Z,2.40
2022-11-27T17:07:00.521Z,2.38
2022-11-27T17:09:28.781Z,2.38
2022-11-27T17:11:55.497Z,2.36
2022-11-27T17:14:26.280Z,2.34
2022-11-27T17:16:53.178Z,2.32
2022-11-27T17:19:23.570Z,2.30
2022-11-27T17:21:50.394Z,2.28
2022-11-27T17:24:17.701Z,2.26
2022-11-27T17:26:48.271Z,2.24
2022-11-27T17:29:18.587Z,2.22
2022-11-27T17:31:45.396Z,2.17
2022-11-27T17:34:15.269Z,2.16
2022-11-27T17:36:44.498Z,2.13
2022-11-27T17:39:14.211Z,2.12
2022-11-27T17:41:44.239Z,2.11
2022-11-27T17:44:12.054Z,2.08
2022-11-27T17:46:40.498Z,2.04
2022-11-27T17:49:08.034Z,1.98
2022-11-27T17:51:36.337Z,1.92
2022-11-27T17:54:04.879Z,1.87
2022-11-27T17:56:33.306Z,1.82
2022-11-27T17:59:00.845Z,1.79
2022-11-27T18:01:29.697Z,1.75
2022-11-27T18:04:03.008Z,1.73
2022-11-27T18:06:31.775Z,1.71
2022-11-27T18:08:59.557Z,1.69
2022-11-27T18:11:30.115Z,1.69
2022-11-27T18:13:59.620Z,1.67
2022-11-27T18:16:33.596Z,1.67
2022-11-27T18:19:03.677Z,1.66
2022-11-27T18:21:31.205Z,1.64
2022-11-27T18:24:22.416Z,1.63
2022-11-27T18:27:07.175Z,1.61
2022-11-27T18:29:34.097Z,1.60
2022-11-27T18:32:01.085Z,1.60
2022-11-27T18:34:28.329Z,1.60
2022-11-27T18:36:56.702Z,1.59
2022-11-27T18:39:23.735Z,1.59
2022-11-27T18:41:50.969Z,1.59
2022-11-27T18:44:17.945Z,1.57
2022-11-27T18:46:44.779Z,1.56
2022-11-27T18:49:12.533Z,1.55
2022-11-27T18:51:39.381Z,1.55
2022-11-27T18:54:07.187Z,1.54
2022-11-27T18:56:36.578Z,1.54
2022-11-27T18:59:05.268Z,1.53
2022-11-27T19:01:41.380Z,1.52
2022-11-27T19:04:10.838Z,1.50
2022-11-27T19:06:39.213Z,1.48
2022-11-27T19:09:06.499Z,1.47
2022-11-27T19:11:34.632Z,1.46
2022-11-27T19:14:04.314Z,1.46
2022-11-27T19:16:41.285Z,1.44
2022-11-27T19:19:16.842Z,1.43
2022-11-27T19:21:56.221Z,1.40
2022-11-27T19:24:22.975Z,1.39
2022-11-27T19:26:54.261Z,1.37
2022-11-27T19:29:21.263Z,1.36
2022-11-27T19:31:48.086Z,1.35
2022-11-27T19:34:15.004Z,1.32
2022-11-27T19:36:41.983Z,1.32
2022-11-27T19:39:14.561Z,1.32
2022-11-27T19:41:42.852Z,1.31
2022-11-27T19:44:12.743Z,1.31
2022-11-27T19:46:40.613Z,1.32
2022-11-27T19:49:12.311Z,1.34
2022-11-27T19:51:40.900Z,1.34
2022-11-27T19:54:12.185Z,1.33
2022-11-27T19:56:41.821Z,1.32
2022-11-27T19:59:09.599Z,1.32
2022-11-27T20:01:39.951Z,1.31
2022-11-27T20:04:08.918Z,1.31
2022-11-27T20:06:35.792Z,1.30
2022-11-27T20:09:05.053Z,1.28
2022-11-27T20:11:35.279Z,1.27
2022-11-27T20:14:04.525Z,1.26
2022-11-27T20:16:33.552Z,1.24
2022-11-27T20:19:04.805Z,1.23
2022-11-27T20:21:35.973Z,1.22
2022-11-27T20:24:03.686Z,1.20
2022-11-27T20:26:30.664Z,1.19
2022-11-27T20:28:58.465Z,1.18
2022-11-27T20:31:31.125Z,1.15
2022-11-27T20:34:00.926Z,1.12
2022-11-27T20:36:29.962Z,1.11
2022-11-27T20:38:59.693Z,1.09
2022-11-27T20:41:27.928Z,1.07
2022-11-27T20:43:58.166Z,1.07
2022-11-27T20:46:25.631Z,1.06
2022-11-27T20:48:53.734Z,1.04
2022-11-27T20:51:26.945Z,1.00
2022-11-27T20:53:54.042Z,0.97
2022-11-27T20:56:20.902Z,0.94
2022-11-27T20:58:48.466Z,0.90
2022-11-27T21:01:22.364Z,0.81
2022-11-27T21:03:51.756Z,0.83
2022-11-27T21:06:21.348Z,0.81
2022-11-27T21:08:49.296Z,0.78
2022-11-27T21:11:25.487Z,0.77
2022-11-27T21:14:01.549Z,0.75
2022-11-27T21:16:31.975Z,0.75
2022-11-27T21:19:02.958Z,0.73
2022-11-27T21:21:30.825Z,0.71
2022-11-27T21:23:59.033Z,0.69
2022-11-27T21:26:26.552Z,0.68
2022-11-27T21:28:53.349Z,0.68
2022-11-27T21:31:23.577Z,0.66
2022-11-27T21:33:52.905Z,0.64
2022-11-27T21:36:21.888Z,0.63
2022-11-27T21:38:49.104Z,0.64
2022-11-27T21:41:17.236Z,0.64
2022-11-27T21:43:45.183Z,0.64
2022-11-27T21:46:16.688Z,0.64
2022-11-27T21:48:44.946Z,0.65
2022-11-27T21:51:14.494Z,0.67
2022-11-27T21:53:43.023Z,0.69
2022-11-27T21:56:12.156Z,0.70
2022-11-27T21:58:39.441Z,0.72
2022-11-27T22:01:10.937Z,0.74
2022-11-27T22:03:42.500Z,0.76
2022-11-27T22:06:12.538Z,0.78
2022-11-27T22:08:39.817Z,0.79
2022-11-27T22:11:12.411Z,0.81
2022-11-27T22:13:40.982Z,0.81
2022-11-27T22:16:12.813Z,0.82
2022-11-27T22:18:39.835Z,0.80
2022-11-27T22:21:10.128Z,0.79
2022-11-27T22:23:37.708Z,0.79
2022-11-27T22:26:07.907Z,0.79
2022-11-27T22:28:35.960Z,0.78
2022-11-27T22:31:17.480Z,0.77
2022-11-27T22:33:45.684Z,0.74
2022-11-27T22:36:19.288Z,0.72
2022-11-27T22:38:48.030Z,0.71
2022-11-27T22:41:15.817Z,0.70
2022-11-27T22:43:43.629Z,0.70
2022-11-27T22:46:14.731Z,0.72
2022-11-27T22:48:41.891Z,0.74
2022-11-27T22:51:09.209Z,0.75
2022-11-27T22:53:37.227Z,0.77
2022-11-27T22:56:11.521Z,0.78
2022-11-27T22:58:41.950Z,0.78
2022-11-27T23:01:18.938Z,0.78
2022-11-27T23:03:46.737Z,0.79
2022-11-27T23:06:15.776Z,0.80
2022-11-27T23:08:44.892Z,0.81
2022-11-27T23:11:21.883Z,0.82
2022-11-27T23:13:50.060Z,0.83
2022-11-27T23:16:18.046Z,0.84
2022-11-27T23:18:45.469Z,0.85
2022-11-27T23:21:14.864Z,0.87
2022-11-27T23:23:42.296Z,0.88
2022-11-27T23:26:18.149Z,0.89
2022-11-27T23:28:47.224Z,0.89
2022-11-27T23:31:29.998Z,0.90
2022-11-27T23:34:01.039Z,0.89
2022-11-27T23:36:28.943Z,0.88
2022-11-27T23:38:56.165Z,0.87
2022-11-27T23:41:24.395Z,0.85
2022-11-27T23:43:52.818Z,0.84
2022-11-27T23:46:21.722Z,0.82
2022-11-27T23:48:48.825Z,0.81
2022-11-27T23:51:24.117Z,0.81
2022-11-27T23:53:51.608Z,0.80
2022-11-27T23:56:30.244Z,0.79
2022-11-27T23:58:57.788Z,0.78
